createdAt,value
2017-08-31T00:01:09.465Z,21.50
2017-08-31T00:03:35.766Z,21.30
2017-08-31T00:06:02.076Z,21.20
2017-08-31T00:08:28.333Z,21.40
2017-08-31T00:10:55.444Z,21.70
2017-08-31T00:13:22.318Z,21.70
2017-08-31T00:15:48.525Z,21.80
2017-08-31T00:18:14.815Z,21.70
2017-08-31T00:20:41.097Z,21.40
2017-08-31T00:23:07.362Z,21.40
2017-08-31T00:25:33.577Z,21.40
2017-08-31T00:27:59.878Z,21.20
2017-08-31T00:30:26.114Z,20.90
2017-08-31T00:32:52.453Z,21.30
2017-08-31T00:35:18.780Z,21.70
2017-08-31T00:37:47.119Z,21.80
2017-08-31T00:40:13.459Z,21.90
2017-08-31T00:42:40.705Z,21.80
2017-08-31T00:45:07.054Z,21.80
2017-08-31T00:47:34.164Z,21.70
2017-08-31T00:50:01.156Z,21.70
2017-08-31T00:52:27.434Z,21.70
2017-08-31T00:54:53.736Z,21.60
2017-08-31T00:57:20.493Z,21.50
2017-08-31T00:59:46.790Z,21.40
2017-08-31T01:02:13.076Z,21.40
2017-08-31T01:04:39.404Z,21.40
2017-08-31T01:07:06.270Z,21.50
2017-08-31T01:09:32.544Z,21.50
2017-08-31T01:11:58.829Z,21.40
2017-08-31T01:14:26.000Z,21.30
2017-08-31T01:16:52.280Z,21.40
2017-08-31T01:19:18.569Z,21.40
2017-08-31T01:21:46.589Z,21.30
2017-08-31T01:24:14.711Z,21.30
2017-08-31T01:26:41.011Z,21.30
2017-08-31T01:29:07.321Z,21.20
2017-08-31T01:31:33.629Z,21.20
2017-08-31T01:33:59.935Z,21.30
2017-08-31T01:36:26.231Z,21.40
2017-08-31T01:38:52.506Z,21.30
2017-08-31T01:41:18.979Z,21.30
2017-08-31T01:43:45.334Z,21.40
2017-08-31T01:46:11.667Z,21.30
2017-08-31T01:48:37.901Z,21.30
2017-08-31T01:51:04.217Z,21.30
2017-08-31T01:53:30.541Z,21.40
2017-08-31T01:55:57.614Z,21.40
2017-08-31T01:58:24.768Z,21.40
2017-08-31T02:00:52.011Z,21.40
2017-08-31T02:03:18.366Z,21.10
2017-08-31T02:05:46.196Z,21.00
2017-08-31T02:08:12.485Z,21.20
2017-08-31T02:10:38.760Z,21.30
2017-08-31T02:13:05.823Z,21.30
2017-08-31T02:15:32.114Z,21.40
2017-08-31T02:17:58.863Z,21.50
2017-08-31T02:20:26.229Z,21.40
2017-08-31T02:22:52.593Z,21.50
2017-08-31T02:25:18.907Z,21.50
2017-08-31T02:27:46.024Z,21.50
2017-08-31T02:30:12.344Z,21.60
2017-08-31T02:32:39.377Z,21.40
2017-08-31T02:35:05.665Z,21.40
2017-08-31T02:37:32.189Z,21.50
2017-08-31T02:39:58.509Z,21.60
2017-08-31T02:42:25.586Z,21.50
2017-08-31T02:44:51.843Z,21.50
2017-08-31T02:47:18.170Z,21.30
2017-08-31T02:49:44.446Z,21.40
2017-08-31T02:52:10.725Z,21.40
2017-08-31T02:54:36.989Z,21.40
2017-08-31T02:57:04.068Z,21.50
2017-08-31T02:59:30.316Z,21.50
2017-08-31T03:01:57.504Z,21.40
2017-08-31T03:04:23.748Z,21.30
2017-08-31T03:06:50.000Z,21.30
2017-08-31T03:09:16.295Z,21.50
2017-08-31T03:11:42.534Z,21.40
2017-08-31T03:14:08.801Z,21.50
2017-08-31T03:16:35.052Z,21.40
2017-08-31T03:19:02.972Z,21.40
2017-08-31T03:21:29.212Z,21.40
2017-08-31T03:23:55.457Z,21.40
2017-08-31T03:26:21.681Z,21.30
2017-08-31T03:28:48.634Z,21.30
2017-08-31T03:31:14.910Z,21.30
2017-08-31T03:33:41.165Z,21.30
2017-08-31T03:36:08.321Z,21.40
2017-08-31T03:38:34.585Z,21.40
2017-08-31T03:41:00.809Z,21.40
2017-08-31T03:43:27.036Z,21.30
2017-08-31T03:45:53.478Z,21.30
2017-08-31T03:48:19.798Z,21.30
2017-08-31T03:50:46.016Z,21.20
2017-08-31T03:53:12.262Z,21.20
2017-08-31T03:55:38.498Z,21.10
2017-08-31T03:58:04.758Z,21.00
2017-08-31T04:00:31.653Z,20.90
2017-08-31T04:02:57.868Z,20.70
2017-08-31T04:05:24.101Z,20.70
2017-08-31T04:07:50.351Z,20.70
2017-08-31T04:10:16.598Z,20.60
2017-08-31T04:12:42.841Z,20.70
2017-08-31T04:15:09.078Z,20.70
2017-08-31T04:17:35.313Z,20.70
2017-08-31T04:20:01.564Z,20.80
2017-08-31T04:22:27.790Z,20.90
2017-08-31T04:24:54.053Z,20.80
2017-08-31T04:27:20.305Z,20.80
2017-08-31T04:29:46.786Z,20.90
2017-08-31T04:32:13.020Z,20.90
2017-08-31T04:34:40.034Z,20.90
2017-08-31T04:37:06.266Z,20.90
2017-08-31T04:39:32.992Z,20.80
2017-08-31T04:41:59.452Z,20.90
2017-08-31T04:44:26.331Z,21.00
2017-08-31T04:46:53.424Z,21.00
2017-08-31T04:49:20.460Z,20.80
2017-08-31T04:51:46.709Z,20.80
2017-08-31T04:54:12.960Z,20.50
2017-08-31T04:56:39.233Z,20.30
2017-08-31T04:59:05.467Z,20.40
2017-08-31T05:01:32.708Z,20.50
2017-08-31T05:03:59.050Z,20.50
2017-08-31T05:06:26.186Z,20.60
2017-08-31T05:08:52.430Z,20.90
2017-08-31T05:11:18.733Z,21.00
2017-08-31T05:13:45.015Z,21.00
2017-08-31T05:16:11.318Z,21.00
2017-08-31T05:18:37.656Z,21.00
2017-08-31T05:21:03.928Z,21.00
2017-08-31T05:23:31.241Z,20.90
2017-08-31T05:25:57.502Z,20.70
2017-08-31T05:28:24.148Z,20.80
2017-08-31T05:30:50.409Z,20.90
2017-08-31T05:33:17.037Z,20.90
2017-08-31T05:35:44.085Z,21.00
2017-08-31T05:38:10.395Z,20.90
2017-08-31T05:40:36.714Z,20.80
2017-08-31T05:43:03.081Z,20.90
2017-08-31T05:45:30.117Z,20.80
2017-08-31T05:47:57.170Z,20.80
2017-08-31T05:50:23.488Z,20.80
2017-08-31T05:52:49.826Z,21.00
2017-08-31T05:55:18.890Z,21.00
2017-08-31T05:57:46.760Z,21.10
2017-08-31T06:00:13.322Z,20.90
2017-08-31T06:02:39.644Z,21.10
2017-08-31T06:05:07.478Z,20.70
2017-08-31T06:07:33.867Z,20.60
2017-08-31T06:10:00.133Z,20.70
2017-08-31T06:12:26.424Z,20.70
2017-08-31T06:14:53.338Z,20.60
2017-08-31T06:17:19.578Z,20.80
2017-08-31T06:19:46.436Z,21.00
2017-08-31T06:22:12.779Z,20.80
2017-08-31T06:24:42.931Z,20.60
2017-08-31T06:27:09.206Z,20.80
2017-08-31T06:29:35.473Z,20.50
2017-08-31T06:32:01.719Z,20.50
2017-08-31T06:34:28.036Z,20.40
2017-08-31T06:36:54.294Z,20.70
2017-08-31T06:39:21.150Z,20.80
2017-08-31T06:41:48.281Z,20.80
2017-08-31T06:44:14.544Z,20.80
2017-08-31T06:46:41.552Z,20.60
2017-08-31T06:49:07.821Z,20.70
2017-08-31T06:51:34.091Z,20.80
2017-08-31T06:54:00.591Z,20.90
2017-08-31T06:56:26.837Z,20.60
2017-08-31T06:58:53.069Z,20.50
2017-08-31T07:01:19.314Z,20.60
2017-08-31T07:03:45.569Z,20.40
2017-08-31T07:06:11.822Z,20.30
2017-08-31T07:08:38.068Z,20.40
2017-08-31T07:11:04.321Z,20.30
2017-08-31T07:13:30.563Z,20.40
2017-08-31T07:15:56.832Z,20.40
2017-08-31T07:18:23.076Z,20.40
2017-08-31T07:20:49.326Z,20.50
2017-08-31T07:23:15.600Z,20.60
2017-08-31T07:25:41.923Z,20.50
2017-08-31T07:28:08.187Z,20.40
2017-08-31T07:30:34.437Z,20.50
2017-08-31T07:33:00.708Z,20.60
2017-08-31T07:35:26.932Z,20.70
2017-08-31T07:37:53.992Z,20.80
2017-08-31T07:40:21.001Z,20.70
2017-08-31T07:42:47.240Z,20.80
2017-08-31T07:45:13.503Z,21.10
2017-08-31T07:47:39.766Z,21.30
2017-08-31T07:50:06.005Z,21.30
2017-08-31T07:52:32.513Z,21.20
2017-08-31T07:54:58.798Z,21.10
2017-08-31T07:57:25.046Z,20.90
2017-08-31T07:59:51.288Z,21.00
2017-08-31T08:02:17.557Z,21.10
2017-08-31T08:04:43.797Z,20.90
2017-08-31T08:07:10.294Z,20.80
2017-08-31T08:09:36.555Z,20.80
2017-08-31T08:12:02.981Z,20.70
2017-08-31T08:14:29.231Z,20.70
2017-08-31T08:16:56.289Z,20.80
2017-08-31T08:19:23.452Z,20.90
2017-08-31T08:21:50.710Z,21.00
2017-08-31T08:24:16.974Z,20.80
2017-08-31T08:26:43.235Z,20.90
2017-08-31T08:29:09.480Z,21.00
2017-08-31T08:31:35.741Z,21.00
2017-08-31T08:34:02.007Z,20.90
2017-08-31T08:36:29.864Z,20.90
2017-08-31T08:38:56.132Z,20.90
2017-08-31T08:41:22.409Z,21.20
2017-08-31T08:43:48.684Z,21.00
2017-08-31T08:46:14.936Z,21.00
2017-08-31T08:48:41.238Z,20.90
2017-08-31T08:51:07.605Z,21.10
2017-08-31T08:53:34.797Z,21.10
2017-08-31T08:56:01.038Z,21.20
2017-08-31T08:58:27.361Z,21.20
2017-08-31T09:00:53.651Z,21.20
2017-08-31T09:03:19.918Z,21.20
2017-08-31T09:05:46.379Z,21.20
2017-08-31T09:08:13.182Z,21.30
2017-08-31T09:10:39.458Z,21.30
2017-08-31T09:13:06.582Z,21.20
2017-08-31T09:15:32.859Z,21.20
2017-08-31T09:17:59.119Z,21.20
2017-08-31T09:20:25.361Z,21.10
2017-08-31T09:22:51.616Z,20.90
2017-08-31T09:25:17.890Z,21.10
2017-08-31T09:27:44.204Z,21.20
2017-08-31T09:30:10.485Z,21.00
2017-08-31T09:32:37.772Z,20.90
2017-08-31T09:35:04.016Z,20.90
2017-08-31T09:37:30.490Z,20.80
2017-08-31T09:39:56.763Z,20.80
2017-08-31T09:42:23.013Z,20.80
2017-08-31T09:44:49.266Z,20.60
2017-08-31T09:47:15.530Z,20.40
2017-08-31T09:49:41.781Z,20.50
2017-08-31T09:52:08.035Z,20.60
2017-08-31T09:54:34.289Z,20.70
2017-08-31T09:57:00.553Z,20.90
2017-08-31T09:59:26.790Z,20.80
2017-08-31T10:01:53.082Z,20.60
2017-08-31T10:04:19.312Z,20.60
2017-08-31T10:06:45.575Z,20.50
2017-08-31T10:09:11.828Z,20.50
2017-08-31T10:11:38.069Z,20.40
2017-08-31T10:14:04.326Z,20.20
2017-08-31T10:16:30.603Z,20.00
2017-08-31T10:18:56.828Z,20.00
2017-08-31T10:21:23.089Z,19.90
2017-08-31T10:23:49.344Z,20.10
2017-08-31T10:26:15.576Z,20.40
2017-08-31T10:28:41.851Z,20.30
2017-08-31T10:31:08.137Z,20.60
2017-08-31T10:33:34.418Z,20.80
2017-08-31T10:36:00.818Z,20.50
2017-08-31T10:38:27.120Z,20.30
2017-08-31T10:40:53.382Z,20.20
2017-08-31T10:43:19.663Z,20.20
2017-08-31T10:45:46.163Z,20.30
2017-08-31T10:48:12.432Z,20.20
2017-08-31T10:50:38.713Z,20.00
2017-08-31T10:53:04.993Z,20.20
2017-08-31T10:55:31.261Z,20.60
2017-08-31T10:57:57.524Z,20.90
2017-08-31T11:00:23.796Z,21.00
2017-08-31T11:02:50.045Z,21.00
2017-08-31T11:05:16.296Z,20.90
2017-08-31T11:07:42.561Z,20.80
2017-08-31T11:10:08.816Z,20.70
2017-08-31T11:12:35.089Z,20.30
2017-08-31T11:15:02.096Z,19.70
2017-08-31T11:17:28.360Z,19.70
2017-08-31T11:19:54.633Z,19.90
2017-08-31T11:22:20.871Z,20.10
2017-08-31T11:24:47.135Z,20.20
2017-08-31T11:27:13.416Z,20.20
2017-08-31T11:29:39.732Z,20.10
2017-08-31T11:32:06.085Z,19.90
2017-08-31T11:34:32.404Z,19.70
2017-08-31T11:36:58.790Z,19.70
2017-08-31T11:39:24.913Z,19.70
2017-08-31T11:41:51.154Z,19.60
2017-08-31T11:44:17.385Z,19.60
2017-08-31T11:46:43.634Z,19.30
2017-08-31T11:49:09.881Z,19.30
2017-08-31T11:51:36.135Z,19.50
2017-08-31T11:54:02.372Z,19.30
2017-08-31T11:56:28.673Z,19.10
2017-08-31T11:58:54.913Z,19.20
2017-08-31T12:01:21.181Z,19.10
2017-08-31T12:03:47.434Z,19.20
2017-08-31T12:06:13.694Z,19.10
2017-08-31T12:08:39.917Z,18.80
2017-08-31T12:11:06.159Z,18.90
2017-08-31T12:13:32.418Z,18.90
2017-08-31T12:15:58.642Z,19.00
2017-08-31T12:18:24.911Z,18.60
2017-08-31T12:20:51.161Z,18.60
2017-08-31T12:23:17.420Z,18.70
2017-08-31T12:25:43.657Z,18.90
2017-08-31T12:28:09.890Z,18.60
2017-08-31T12:30:36.142Z,18.30
2017-08-31T12:33:02.421Z,18.40
2017-08-31T12:35:28.673Z,18.30
2017-08-31T12:37:54.918Z,18.50
2017-08-31T12:40:21.160Z,18.70
2017-08-31T12:42:47.390Z,18.70
2017-08-31T12:45:13.626Z,18.40
2017-08-31T12:47:39.856Z,18.40
2017-08-31T12:50:06.101Z,18.60
2017-08-31T12:52:32.349Z,18.80
2017-08-31T12:54:58.600Z,18.30
2017-08-31T12:57:24.856Z,18.10
2017-08-31T12:59:51.141Z,17.90
2017-08-31T13:02:17.381Z,17.80
2017-08-31T13:04:43.622Z,17.80
2017-08-31T13:07:09.868Z,17.90
2017-08-31T13:09:36.126Z,18.10
2017-08-31T13:12:02.373Z,18.30
2017-08-31T13:14:28.621Z,18.10
2017-08-31T13:16:54.849Z,18.00
2017-08-31T13:19:21.131Z,17.90
2017-08-31T13:21:47.360Z,18.00
2017-08-31T13:24:14.452Z,17.90
2017-08-31T13:26:40.695Z,17.80
2017-08-31T13:29:06.939Z,17.80
2017-08-31T13:31:33.191Z,17.70
2017-08-31T13:33:59.448Z,17.80
2017-08-31T13:36:26.597Z,17.90
2017-08-31T13:38:52.838Z,17.90
2017-08-31T13:41:19.080Z,17.90
2017-08-31T13:43:45.325Z,18.10
2017-08-31T13:46:11.570Z,18.10
2017-08-31T13:48:37.804Z,17.90
2017-08-31T13:51:05.792Z,17.90
2017-08-31T13:53:32.036Z,17.70
2017-08-31T13:55:58.315Z,17.80
2017-08-31T13:58:24.564Z,17.70
2017-08-31T14:00:50.796Z,17.80
2017-08-31T14:03:17.992Z,18.10
2017-08-31T14:05:44.212Z,18.10
2017-08-31T14:08:10.446Z,17.80
2017-08-31T14:10:36.686Z,17.60
2017-08-31T14:13:02.952Z,17.40
2017-08-31T14:15:29.191Z,17.40
2017-08-31T14:17:55.467Z,17.20
2017-08-31T14:20:21.734Z,17.00
2017-08-31T14:22:47.982Z,17.10
2017-08-31T14:25:14.222Z,16.90
2017-08-31T14:27:40.470Z,16.80
2017-08-31T14:30:06.721Z,16.90
2017-08-31T14:32:33.007Z,17.10
2017-08-31T14:34:59.260Z,17.00
2017-08-31T14:37:25.507Z,17.00
2017-08-31T14:39:51.748Z,17.00
2017-08-31T14:42:17.982Z,17.10
2017-08-31T14:44:44.240Z,17.10
2017-08-31T14:47:10.497Z,16.90
2017-08-31T14:49:36.731Z,17.10
2017-08-31T14:52:02.958Z,17.40
2017-08-31T14:54:30.817Z,17.80
2017-08-31T14:56:57.048Z,18.80
2017-08-31T14:59:23.294Z,20.30
2017-08-31T15:01:49.533Z,21.10
2017-08-31T15:04:15.760Z,21.00
2017-08-31T15:06:42.014Z,20.70
2017-08-31T15:09:08.248Z,20.40
2017-08-31T15:11:35.149Z,19.30
2017-08-31T15:14:01.385Z,18.90
2017-08-31T15:16:27.622Z,18.50
2017-08-31T15:18:53.865Z,18.10
2017-08-31T15:21:20.102Z,18.00
2017-08-31T15:23:46.344Z,17.80
2017-08-31T15:26:12.593Z,17.70
2017-08-31T15:28:38.837Z,17.50
2017-08-31T15:31:05.088Z,17.70
2017-08-31T15:33:31.304Z,17.70
2017-08-31T15:36:04.538Z,18.00
2017-08-31T15:38:30.781Z,17.80
2017-08-31T15:40:57.044Z,17.80
2017-08-31T15:43:23.291Z,17.80
2017-08-31T15:45:49.541Z,17.70
2017-08-31T15:48:15.825Z,17.60
2017-08-31T15:50:42.058Z,17.80
2017-08-31T15:53:08.336Z,18.70
2017-08-31T15:55:34.587Z,19.90
2017-08-31T15:58:00.846Z,21.00
2017-08-31T16:00:27.119Z,21.90
2017-08-31T16:02:54.247Z,22.50
2017-08-31T16:05:20.477Z,21.70
2017-08-31T16:07:46.722Z,21.70
2017-08-31T16:10:12.967Z,21.00
2017-08-31T16:12:39.246Z,20.90
2017-08-31T16:15:05.480Z,20.00
2017-08-31T16:17:31.802Z,19.60
2017-08-31T16:19:58.040Z,19.00
2017-08-31T16:22:24.308Z,18.90
2017-08-31T16:24:50.548Z,18.70
2017-08-31T16:27:16.796Z,18.60
2017-08-31T16:29:43.036Z,18.70
2017-08-31T16:32:09.315Z,18.30
2017-08-31T16:34:35.623Z,18.40
2017-08-31T16:37:01.912Z,18.50
2017-08-31T16:39:28.199Z,18.30
2017-08-31T16:41:54.455Z,18.30
2017-08-31T16:44:20.772Z,18.50
2017-08-31T16:46:47.041Z,18.70
2017-08-31T16:49:13.309Z,18.80
2017-08-31T16:51:39.731Z,18.70
2017-08-31T16:54:06.552Z,18.70
2017-08-31T16:56:33.391Z,19.00
2017-08-31T16:59:07.499Z,19.70
2017-08-31T17:01:33.805Z,20.40
2017-08-31T17:04:00.140Z,20.50
2017-08-31T17:06:26.429Z,20.30
2017-08-31T17:08:52.753Z,20.10
2017-08-31T17:11:19.036Z,19.90
2017-08-31T17:13:45.351Z,19.40
2017-08-31T17:16:12.378Z,18.30
2017-08-31T17:18:38.724Z,18.20
2017-08-31T17:21:06.956Z,18.30
2017-08-31T17:23:33.197Z,18.20
2017-08-31T17:25:59.466Z,18.10
2017-08-31T17:28:25.726Z,17.90
2017-08-31T17:30:51.989Z,17.80
2017-08-31T17:33:18.278Z,18.10
2017-08-31T17:35:44.871Z,17.90
2017-08-31T17:38:11.567Z,18.00
2017-08-31T17:40:38.711Z,17.80
2017-08-31T17:43:05.700Z,17.90
2017-08-31T17:45:32.392Z,17.60
2017-08-31T17:47:59.295Z,17.60
2017-08-31T17:50:26.191Z,17.70
2017-08-31T17:52:52.875Z,17.80
2017-08-31T17:55:19.679Z,17.90
2017-08-31T17:57:46.421Z,17.60
2017-08-31T18:00:13.091Z,17.10
2017-08-31T18:02:39.680Z,17.50
2017-08-31T18:05:06.051Z,17.40
2017-08-31T18:07:32.340Z,17.20
2017-08-31T18:09:58.611Z,17.10
2017-08-31T18:12:24.905Z,17.00
2017-08-31T18:14:51.181Z,17.00
2017-08-31T18:17:17.638Z,17.00
2017-08-31T18:19:44.497Z,16.80
2017-08-31T18:22:12.198Z,16.90
2017-08-31T18:24:41.581Z,16.90
2017-08-31T18:27:11.459Z,16.90
2017-08-31T18:29:41.000Z,17.00
2017-08-31T18:32:09.208Z,16.80
2017-08-31T18:34:35.960Z,16.80
2017-08-31T18:37:02.325Z,17.00
2017-08-31T18:39:28.619Z,16.90
2017-08-31T18:41:54.941Z,16.90
2017-08-31T18:44:21.215Z,16.60
2017-08-31T18:46:47.558Z,16.50
2017-08-31T18:49:13.923Z,16.40
2017-08-31T18:51:41.221Z,16.20
2017-08-31T18:54:07.644Z,16.30
2017-08-31T18:56:34.036Z,16.10
2017-08-31T18:59:00.434Z,16.00
2017-08-31T19:01:26.709Z,16.10
2017-08-31T19:03:53.110Z,16.20
2017-08-31T19:06:19.383Z,16.00
2017-08-31T19:08:45.640Z,16.00
2017-08-31T19:11:11.913Z,16.10
2017-08-31T19:13:38.244Z,16.00
2017-08-31T19:16:04.515Z,16.20
2017-08-31T19:18:30.762Z,16.10
2017-08-31T19:20:57.028Z,16.10
2017-08-31T19:23:23.304Z,15.70
2017-08-31T19:25:49.552Z,16.00
2017-08-31T19:28:16.757Z,15.40
2017-08-31T19:30:43.020Z,15.10
2017-08-31T19:33:09.293Z,15.20
2017-08-31T19:35:35.539Z,15.20
2017-08-31T19:38:01.821Z,15.60
2017-08-31T19:40:28.107Z,15.30
2017-08-31T19:42:54.431Z,15.10
2017-08-31T19:45:20.703Z,15.00
2017-08-31T19:47:46.986Z,15.10
2017-08-31T19:50:13.253Z,15.40
2017-08-31T19:52:39.523Z,15.00
2017-08-31T19:55:05.808Z,15.10
2017-08-31T19:57:32.054Z,15.00
2017-08-31T19:59:58.303Z,15.10
2017-08-31T20:02:24.568Z,15.00
2017-08-31T20:04:50.859Z,14.80
2017-08-31T20:07:17.121Z,14.70
2017-08-31T20:09:43.432Z,15.00
2017-08-31T20:12:09.684Z,15.10
2017-08-31T20:14:35.987Z,15.20
2017-08-31T20:17:02.257Z,15.00
2017-08-31T20:19:28.521Z,15.00
2017-08-31T20:21:55.053Z,15.40
2017-08-31T20:24:21.336Z,15.40
2017-08-31T20:26:47.602Z,14.80
2017-08-31T20:29:13.860Z,14.50
2017-08-31T20:31:40.129Z,14.80
2017-08-31T20:34:06.381Z,14.80
2017-08-31T20:36:32.650Z,14.80
2017-08-31T20:38:59.007Z,14.90
2017-08-31T20:41:25.279Z,14.90
2017-08-31T20:43:51.545Z,14.90
2017-08-31T20:46:17.897Z,14.80
2017-08-31T20:48:44.183Z,14.60
2017-08-31T20:51:10.476Z,14.60
2017-08-31T20:53:36.749Z,14.30
2017-08-31T20:56:03.026Z,14.40
2017-08-31T20:58:29.302Z,13.90
2017-08-31T21:00:55.672Z,14.30
2017-08-31T21:03:22.795Z,14.20
2017-08-31T21:05:49.135Z,13.90
2017-08-31T21:08:15.489Z,14.00
2017-08-31T21:10:41.823Z,13.90
2017-08-31T21:13:08.231Z,13.70
2017-08-31T21:15:34.654Z,13.70
2017-08-31T21:18:01.119Z,13.90
2017-08-31T21:20:27.416Z,13.90
2017-08-31T21:22:53.827Z,13.80
2017-08-31T21:25:20.164Z,14.10
2017-08-31T21:27:46.465Z,14.00
2017-08-31T21:30:12.796Z,13.90
2017-08-31T21:32:39.228Z,13.90
2017-08-31T21:35:05.539Z,14.20
2017-08-31T21:37:31.832Z,14.60
2017-08-31T21:39:58.206Z,14.50
2017-08-31T21:42:24.579Z,14.20
2017-08-31T21:44:50.981Z,14.30
2017-08-31T21:47:17.361Z,13.90
2017-08-31T21:49:43.705Z,14.20
2017-08-31T21:52:10.084Z,14.30
2017-08-31T21:54:36.451Z,14.20
2017-08-31T21:57:02.815Z,14.20
2017-08-31T21:59:29.211Z,14.40
2017-08-31T22:01:55.586Z,14.40
2017-08-31T22:04:21.971Z,14.20
2017-08-31T22:06:48.379Z,13.80
2017-08-31T22:09:14.779Z,13.40
2017-08-31T22:11:41.108Z,13.40
2017-08-31T22:14:07.457Z,14.10
2017-08-31T22:16:33.837Z,14.30
2017-08-31T22:19:00.175Z,13.90
2017-08-31T22:21:26.583Z,14.10
2017-08-31T22:23:52.937Z,14.10
2017-08-31T22:26:19.361Z,13.80
2017-08-31T22:28:45.817Z,13.90
2017-08-31T22:31:12.174Z,13.60
2017-08-31T22:33:38.442Z,13.30
2017-08-31T22:36:04.767Z,13.20
2017-08-31T22:38:31.053Z,13.10
2017-08-31T22:40:57.375Z,13.10
2017-08-31T22:43:23.735Z,13.20
2017-08-31T22:45:50.078Z,13.50
2017-08-31T22:48:16.331Z,13.60
2017-08-31T22:50:42.586Z,13.50
2017-08-31T22:53:08.867Z,13.70
2017-08-31T22:55:35.134Z,13.30
2017-08-31T22:58:13.864Z,13.20
2017-08-31T23:00:41.114Z,13.50
2017-08-31T23:03:07.410Z,13.70
2017-08-31T23:05:33.693Z,13.60
2017-08-31T23:08:00.007Z,13.80
2017-08-31T23:10:26.272Z,14.20
2017-08-31T23:12:52.559Z,14.40
2017-08-31T23:15:18.859Z,14.50
2017-08-31T23:17:45.150Z,14.60
2017-08-31T23:20:11.486Z,14.70
2017-08-31T23:22:37.832Z,14.70
2017-08-31T23:25:04.191Z,14.50
2017-08-31T23:27:30.531Z,14.40
2017-08-31T23:29:56.835Z,14.30
2017-08-31T23:32:23.117Z,14.40
2017-08-31T23:34:49.468Z,14.50
2017-08-31T23:37:15.721Z,14.40
2017-08-31T23:39:42.023Z,14.50
2017-08-31T23:42:08.268Z,14.20
2017-08-31T23:44:34.728Z,13.90
2017-08-31T23:47:00.989Z,13.50
2017-08-31T23:49:27.293Z,13.50
2017-08-31T23:51:53.549Z,13.40
2017-08-31T23:54:19.796Z,12.80
2017-08-31T23:56:46.191Z,12.80
2017-08-31T23:59:12.490Z,12.80
